ARG6739 SAVE-SAZR
Flight info
| Callsign | ARG6739 |
|---|---|
| Flight time | N/A |
| Altitude | 34000 |
| Route | DCT ESQ UW44 BAR/N0462F350 UW26 NEU UZ114 OSEKO UZ127 OSA DCT |
| Aircraft | B38M/M-SDE1FGHILORVWXY/HB1 |
Departure
| Time | N/A |
|---|---|
| Airport | Esquel Brigadier Antonio Parodi International Airport (SAVE) |
Arrival
| Time | 2026-04-16 15:03 |
|---|---|
| Airport | Santa Rosa Airport (SAZR) |
| Time | Latitude | Longitude | Altitude | Speed | Heading |
|---|---|---|---|---|---|
| 2026-04-16 14:29 | -38.35614 | -67.65581 | 34838 ft | 484 kts | 53° |
| 2026-04-16 14:30 | -38.31786 | -67.58631 | 34839 ft | 482 kts | 53° |
| 2026-04-16 14:30 | -38.27920 | -67.51694 | 34840 ft | 481 kts | 53° |
| 2026-04-16 14:31 | -38.24047 | -67.44804 | 34844 ft | 480 kts | 53° |
| 2026-04-16 14:31 | -38.20811 | -67.39074 | 34851 ft | 479 kts | 53° |
| 2026-04-16 14:32 | -38.12537 | -67.24479 | 34858 ft | 480 kts | 52° |
| 2026-04-16 14:33 | -38.08653 | -67.17648 | 34858 ft | 480 kts | 52° |
| 2026-04-16 14:33 | -38.04755 | -67.10804 | 34858 ft | 481 kts | 52° |
| 2026-04-16 14:34 | -38.00839 | -67.03940 | 34857 ft | 482 kts | 53° |
| 2026-04-16 14:34 | -37.96930 | -66.97105 | 34855 ft | 481 kts | 53° |
| 2026-04-16 14:35 | -37.93019 | -66.90284 | 34857 ft | 481 kts | 53° |
| 2026-04-16 14:35 | -37.89085 | -66.83436 | 34862 ft | 482 kts | 53° |
| 2026-04-16 14:36 | -37.85165 | -66.76624 | 34862 ft | 481 kts | 53° |
| 2026-04-16 14:36 | -37.81240 | -66.69821 | 34863 ft | 481 kts | 53° |
| 2026-04-16 14:37 | -37.77308 | -66.63019 | 34863 ft | 482 kts | 53° |
| 2026-04-16 14:37 | -37.73343 | -66.56172 | 34863 ft | 482 kts | 53° |
| 2026-04-16 14:38 | -37.69398 | -66.49370 | 34865 ft | 483 kts | 53° |
| 2026-04-16 14:38 | -37.65443 | -66.42568 | 34865 ft | 482 kts | 53° |
| 2026-04-16 14:39 | -37.62138 | -66.36897 | 34867 ft | 483 kts | 53° |
| 2026-04-16 14:39 | -37.57516 | -66.28982 | 34865 ft | 482 kts | 53° |
| 2026-04-16 14:40 | -37.53549 | -66.22207 | 34862 ft | 482 kts | 53° |
| 2026-04-16 14:40 | -37.49588 | -66.15450 | 34864 ft | 483 kts | 53° |
| 2026-04-16 14:41 | -37.45608 | -66.08677 | 34870 ft | 482 kts | 53° |
| 2026-04-16 14:41 | -37.41636 | -66.01930 | 34863 ft | 482 kts | 53° |
| 2026-04-16 14:42 | -37.37660 | -65.95190 | 34874 ft | 483 kts | 53° |
| 2026-04-16 14:42 | -37.33659 | -65.88420 | 34829 ft | 481 kts | 53° |
| 2026-04-16 14:43 | -37.31686 | -65.85086 | 34450 ft | 475 kts | 53° |
| 2026-04-16 14:43 | -37.29730 | -65.81787 | 33832 ft | 474 kts | 53° |
| 2026-04-16 14:43 | -37.27773 | -65.78489 | 33100 ft | 475 kts | 53° |
| 2026-04-16 14:43 | -37.25807 | -65.75179 | 32306 ft | 477 kts | 53° |
| 2026-04-16 14:44 | -37.23833 | -65.71860 | 31484 ft | 478 kts | 53° |
| 2026-04-16 14:44 | -37.21850 | -65.68527 | 30636 ft | 480 kts | 53° |
| 2026-04-16 14:44 | -37.19851 | -65.65170 | 29751 ft | 481 kts | 53° |
| 2026-04-16 14:44 | -37.17858 | -65.61827 | 28820 ft | 483 kts | 53° |
| 2026-04-16 14:45 | -37.15859 | -65.58478 | 27864 ft | 484 kts | 53° |
| 2026-04-16 14:45 | -37.13859 | -65.55129 | 27100 ft | 480 kts | 53° |
| 2026-04-16 14:45 | -37.11882 | -65.51822 | 26490 ft | 474 kts | 53° |
| 2026-04-16 14:45 | -37.09930 | -65.48559 | 25822 ft | 468 kts | 52° |
| 2026-04-16 14:46 | -37.07997 | -65.45333 | 25137 ft | 464 kts | 52° |
| 2026-04-16 14:46 | -37.06068 | -65.42117 | 24446 ft | 459 kts | 52° |
| 2026-04-16 14:46 | -37.04168 | -65.38951 | 23754 ft | 455 kts | 52° |
| 2026-04-16 14:46 | -37.02286 | -65.35820 | 23066 ft | 451 kts | 52° |
| 2026-04-16 14:47 | -37.00420 | -65.32716 | 22401 ft | 447 kts | 51° |
| 2026-04-16 14:47 | -36.98571 | -65.29645 | 21726 ft | 443 kts | 51° |
| 2026-04-16 14:47 | -36.96738 | -65.26602 | 21045 ft | 439 kts | 51° |
| 2026-04-16 14:47 | -36.94919 | -65.23583 | 20366 ft | 435 kts | 51° |
| 2026-04-16 14:48 | -36.94310 | -65.22575 | 20143 ft | 434 kts | 51° |
| 2026-04-16 14:48 | -36.91311 | -65.17607 | 19016 ft | 428 kts | 51° |
| 2026-04-16 14:48 | -36.90727 | -65.16642 | 18793 ft | 426 kts | 51° |
| 2026-04-16 14:49 | -36.86018 | -65.08857 | 17034 ft | 416 kts | 52° |
| 2026-04-16 14:49 | -36.84292 | -65.06008 | 16367 ft | 412 kts | 52° |
| 2026-04-16 14:49 | -36.82579 | -65.03183 | 15698 ft | 409 kts | 52° |
| 2026-04-16 14:49 | -36.80881 | -65.00385 | 15042 ft | 405 kts | 52° |
| 2026-04-16 14:50 | -36.79196 | -64.97613 | 14389 ft | 401 kts | 52° |
| 2026-04-16 14:50 | -36.77528 | -64.94869 | 13744 ft | 398 kts | 52° |
| 2026-04-16 14:50 | -36.75872 | -64.92149 | 13089 ft | 394 kts | 52° |
| 2026-04-16 14:50 | -36.74220 | -64.89439 | 12442 ft | 390 kts | 52° |
| 2026-04-16 14:51 | -36.72596 | -64.86775 | 11799 ft | 386 kts | 52° |
| 2026-04-16 14:51 | -36.70990 | -64.84143 | 11184 ft | 381 kts | 52° |
| 2026-04-16 14:51 | -36.69412 | -64.81559 | 10934 ft | 370 kts | 52° |
| 2026-04-16 14:51 | -36.67885 | -64.79058 | 10903 ft | 358 kts | 52° |
| 2026-04-16 14:53 | -36.58472 | -64.63689 | 9748 ft | 299 kts | 53° |
| 2026-04-16 14:53 | -36.57218 | -64.61648 | 9391 ft | 297 kts | 53° |
| 2026-04-16 14:54 | -36.55966 | -64.59609 | 9038 ft | 295 kts | 52° |
| 2026-04-16 14:54 | -36.54734 | -64.57607 | 8730 ft | 291 kts | 52° |
| 2026-04-16 14:54 | -36.53519 | -64.55631 | 8389 ft | 288 kts | 52° |
| 2026-04-16 14:54 | -36.52315 | -64.53676 | 8053 ft | 285 kts | 52° |
| 2026-04-16 14:55 | -36.51124 | -64.51742 | 7575 ft | 282 kts | 52° |
| 2026-04-16 14:55 | -36.49950 | -64.49838 | 7110 ft | 277 kts | 52° |
| 2026-04-16 14:55 | -36.48795 | -64.47967 | 6633 ft | 273 kts | 51° |
| 2026-04-16 14:55 | -36.47628 | -64.46132 | 6166 ft | 269 kts | 51° |
| 2026-04-16 14:56 | -36.46502 | -64.44314 | 5650 ft | 265 kts | 52° |
| 2026-04-16 14:56 | -36.46138 | -64.43719 | 5491 ft | 264 kts | 52° |
| 2026-04-16 14:56 | -36.43251 | -64.38985 | 4611 ft | 237 kts | 52° |
| 2026-04-16 14:57 | -36.42265 | -64.37389 | 4262 ft | 232 kts | 52° |
| 2026-04-16 14:57 | -36.41313 | -64.35853 | 4168 ft | 218 kts | 52° |
| 2026-04-16 14:57 | -36.40431 | -64.34348 | 3918 ft | 217 kts | 58° |
| 2026-04-16 14:57 | -36.39937 | -64.32604 | 3660 ft | 218 kts | 87° |
| 2026-04-16 14:58 | -36.40147 | -64.30806 | 3687 ft | 204 kts | 101° |
| 2026-04-16 14:58 | -36.40734 | -64.27636 | 3671 ft | 178 kts | 98° |
| 2026-04-16 14:58 | -36.40980 | -64.26150 | 3639 ft | 176 kts | 101° |
| 2026-04-16 14:59 | -36.41503 | -64.24774 | 3601 ft | 181 kts | 130° |
| 2026-04-16 14:59 | -36.42589 | -64.23968 | 3521 ft | 188 kts | 163° |
| 2026-04-16 14:59 | -36.43891 | -64.23814 | 3150 ft | 193 kts | 185° |
| 2026-04-16 14:59 | -36.45209 | -64.24137 | 2599 ft | 194 kts | 193° |
| 2026-04-16 15:00 | -36.46466 | -64.24497 | 2414 ft | 174 kts | 191° |
| 2026-04-16 15:00 | -36.47624 | -64.24796 | 2400 ft | 172 kts | 191° |
| 2026-04-16 15:00 | -36.48785 | -64.25084 | 2335 ft | 165 kts | 191° |
| 2026-04-16 15:01 | -36.52130 | -64.25910 | 1716 ft | 154 kts | 190° |
| 2026-04-16 15:01 | -36.53183 | -64.26169 | 1513 ft | 155 kts | 190° |
| 2026-04-16 15:01 | -36.54237 | -64.26429 | 1303 ft | 153 kts | 190° |
| 2026-04-16 15:02 | -36.55286 | -64.26688 | 1109 ft | 155 kts | 189° |
| 2026-04-16 15:02 | -36.56340 | -64.26925 | 921 ft | 154 kts | 187° |
| 2026-04-16 15:02 | -36.57384 | -64.27202 | 724 ft | 155 kts | 194° |
| 2026-04-16 15:02 | -36.58404 | -64.27455 | 620 ft | 132 kts | 192° |
| 2026-04-16 15:03 | -36.59108 | -64.27629 | 617 ft | 76 kts | 191° |
| 2026-04-16 15:03 | -36.59472 | -64.27720 | 615 ft | 32 kts | 191° |
| 2026-04-16 15:03 | -36.59644 | -64.27762 | 616 ft | 24 kts | 191° |
| 2026-04-16 15:03 | -36.59778 | -64.27808 | 615 ft | 13 kts | 221° |
| 2026-04-16 15:04 | -36.59812 | -64.27813 | 615 ft | 8 kts | 58° |
| 2026-04-16 15:04 | -36.59736 | -64.27786 | 616 ft | 15 kts | 10° |
| 2026-04-16 15:04 | -36.59607 | -64.27753 | 616 ft | 23 kts | 12° |
| 2026-04-16 15:04 | -36.59551 | -64.27738 | 616 ft | 26 kts | 11° |
| 2026-04-16 15:05 | -36.59347 | -64.27689 | 617 ft | 33 kts | 11° |
| 2026-04-16 15:05 | -36.59145 | -64.27714 | 618 ft | 13 kts | 257° |
| 2026-04-16 15:05 | -36.59173 | -64.27800 | 620 ft | 8 kts | 248° |
| 2026-04-16 15:05 | -36.59191 | -64.27849 | 620 ft | 5 kts | 283° |
| 2026-04-16 15:06 | -36.59165 | -64.27892 | 621 ft | 1 kts | 307° |
| 2026-04-16 15:06 | -36.59165 | -64.27893 | 621 ft | 0 kts | 307° |